sensor_id;sensor_type;location;lat;lon;timestamp;pressure;altitude;pressure_sealevel;temperature
15709;BMP180;7954;51.914;8.420;2022-07-05T00:01:46;100714.84;;;25.02
15709;BMP180;7954;51.914;8.420;2022-07-05T00:04:15;100720.38;;;24.98
15709;BMP180;7954;51.914;8.420;2022-07-05T00:06:43;100721.19;;;24.90
15709;BMP180;7954;51.914;8.420;2022-07-05T00:09:25;100721.03;;;24.89
15709;BMP180;7954;51.914;8.420;2022-07-05T00:11:53;100721.44;;;24.85
15709;BMP180;7954;51.914;8.420;2022-07-05T00:14:21;100724.03;;;24.78
15709;BMP180;7954;51.914;8.420;2022-07-05T00:16:51;100728.50;;;24.72
15709;BMP180;7954;51.914;8.420;2022-07-05T00:19:19;100733.75;;;24.58
15709;BMP180;7954;51.914;8.420;2022-07-05T00:21:47;100727.34;;;24.48
15709;BMP180;7954;51.914;8.420;2022-07-05T00:24:15;100727.19;;;24.39
15709;BMP180;7954;51.914;8.420;2022-07-05T00:26:43;100730.31;;;24.30
15709;BMP180;7954;51.914;8.420;2022-07-05T00:29:11;100737.56;;;24.18
15709;BMP180;7954;51.914;8.420;2022-07-05T00:31:39;100740.19;;;24.04
15709;BMP180;7954;51.914;8.420;2022-07-05T00:34:08;100738.88;;;23.94
15709;BMP180;7954;51.914;8.420;2022-07-05T00:36:36;100743.91;;;23.86
15709;BMP180;7954;51.914;8.420;2022-07-05T00:39:06;100738.56;;;23.77
15709;BMP180;7954;51.914;8.420;2022-07-05T00:41:35;100741.31;;;23.79
15709;BMP180;7954;51.914;8.420;2022-07-05T00:44:06;100746.13;;;23.76
15709;BMP180;7954;51.914;8.420;2022-07-05T00:46:36;100749.44;;;23.75
15709;BMP180;7954;51.914;8.420;2022-07-05T00:49:05;100750.53;;;23.77
15709;BMP180;7954;51.914;8.420;2022-07-05T00:51:36;100739.09;;;23.82
15709;BMP180;7954;51.914;8.420;2022-07-05T00:54:24;100734.28;;;23.92
15709;BMP180;7954;51.914;8.420;2022-07-05T00:56:53;100731.34;;;23.96
15709;BMP180;7954;51.914;8.420;2022-07-05T00:59:24;100737.06;;;23.93
15709;BMP180;7954;51.914;8.420;2022-07-05T01:01:52;100740.38;;;23.92
15709;BMP180;7954;51.914;8.420;2022-07-05T01:04:20;100736.88;;;23.92
15709;BMP180;7954;51.914;8.420;2022-07-05T01:06:51;100742.22;;;23.86
15709;BMP180;7954;51.914;8.420;2022-07-05T01:09:21;100738.91;;;23.80
15709;BMP180;7954;51.914;8.420;2022-07-05T01:11:50;100742.44;;;23.81
15709;BMP180;7954;51.914;8.420;2022-07-05T01:14:19;100742.44;;;23.74
15709;BMP180;7954;51.914;8.420;2022-07-05T01:16:48;100752.53;;;23.65
15709;BMP180;7954;51.914;8.420;2022-07-05T01:19:17;100745.72;;;23.59
15709;BMP180;7954;51.914;8.420;2022-07-05T01:21:46;100744.44;;;23.55
15709;BMP180;7954;51.914;8.420;2022-07-05T01:24:18;100743.91;;;23.51
15709;BMP180;7954;51.914;8.420;2022-07-05T01:26:50;100749.94;;;23.44
15709;BMP180;7954;51.914;8.420;2022-07-05T01:29:18;100755.31;;;23.46
15709;BMP180;7954;51.914;8.420;2022-07-05T01:31:47;100750.88;;;23.45
15709;BMP180;7954;51.914;8.420;2022-07-05T01:34:15;100752.53;;;23.44
15709;BMP180;7954;51.914;8.420;2022-07-05T01:36:45;100751.78;;;23.45
15709;BMP180;7954;51.914;8.420;2022-07-05T01:39:14;100757.88;;;23.39
15709;BMP180;7954;51.914;8.420;2022-07-05T01:41:44;100757.88;;;23.39
15709;BMP180;7954;51.914;8.420;2022-07-05T01:44:12;100757.84;;;23.32
15709;BMP180;7954;51.914;8.420;2022-07-05T01:46:40;100752.53;;;23.30
15709;BMP180;7954;51.914;8.420;2022-07-05T01:49:09;100750.50;;;23.28
15709;BMP180;7954;51.914;8.420;2022-07-05T01:51:41;100758.59;;;23.38
15709;BMP180;7954;51.914;8.420;2022-07-05T01:54:10;100755.66;;;23.42
15709;BMP180;7954;51.914;8.420;2022-07-05T01:56:37;100747.56;;;23.39
15709;BMP180;7954;51.914;8.420;2022-07-05T01:59:07;100744.44;;;23.41
15709;BMP180;7954;51.914;8.420;2022-07-05T02:01:37;100750.16;;;23.39
15709;BMP180;7954;51.914;8.420;2022-07-05T02:04:07;100753.09;;;23.35
15709;BMP180;7954;51.914;8.420;2022-07-05T02:06:36;100762.69;;;23.36
15709;BMP180;7954;51.914;8.420;2022-07-05T02:09:05;100753.09;;;23.35
15709;BMP180;7954;51.914;8.420;2022-07-05T02:11:34;100750.34;;;23.33
15709;BMP180;7954;51.914;8.420;2022-07-05T02:14:03;100752.38;;;23.36
15709;BMP180;7954;51.914;8.420;2022-07-05T02:16:34;100754.00;;;23.35
15709;BMP180;7954;51.914;8.420;2022-07-05T02:19:04;100749.56;;;23.34
15709;BMP180;7954;51.914;8.420;2022-07-05T02:21:31;100751.78;;;23.31
15709;BMP180;7954;51.914;8.420;2022-07-05T02:23:59;100745.16;;;23.27
15709;BMP180;7954;51.914;8.420;2022-07-05T02:26:28;100752.91;;;23.27
15709;BMP180;7954;51.914;8.420;2022-07-05T02:29:13;100755.28;;;23.18
15709;BMP180;7954;51.914;8.420;2022-07-05T02:31:41;100756.56;;;23.15
15709;BMP180;7954;51.914;8.420;2022-07-05T02:34:09;100752.53;;;23.17
15709;BMP180;7954;51.914;8.420;2022-07-05T02:36:41;100762.66;;;23.15
15709;BMP180;7954;51.914;8.420;2022-07-05T02:39:09;100761.16;;;23.17
15709;BMP180;7954;51.914;8.420;2022-07-05T02:41:37;100757.84;;;23.18
15709;BMP180;7954;51.914;8.420;2022-07-05T02:44:06;100754.00;;;23.22
15709;BMP180;7954;51.914;8.420;2022-07-05T02:46:35;100757.16;;;23.26
15709;BMP180;7954;51.914;8.420;2022-07-05T02:49:03;100762.47;;;23.28
15709;BMP180;7954;51.914;8.420;2022-07-05T02:51:31;100757.88;;;23.25
15709;BMP180;7954;51.914;8.420;2022-07-05T02:54:00;100761.00;;;23.29
15709;BMP180;7954;51.914;8.420;2022-07-05T02:56:28;100759.53;;;23.31
15709;BMP180;7954;51.914;8.420;2022-07-05T02:58:56;100754.91;;;23.22
15709;BMP180;7954;51.914;8.420;2022-07-05T03:01:23;100755.66;;;23.21
15709;BMP180;7954;51.914;8.420;2022-07-05T03:03:58;100754.91;;;23.22
15709;BMP180;7954;51.914;8.420;2022-07-05T03:06:27;100749.19;;;23.25
15709;BMP180;7954;51.914;8.420;2022-07-05T03:08:55;100748.88;;;23.29
15709;BMP180;7954;51.914;8.420;2022-07-05T03:11:24;100753.47;;;23.31
15709;BMP180;7954;51.914;8.420;2022-07-05T03:13:53;100756.41;;;23.34
15709;BMP180;7954;51.914;8.420;2022-07-05T03:16:22;100762.31;;;23.40
15709;BMP180;7954;51.914;8.420;2022-07-05T03:18:51;100763.97;;;23.46
15709;BMP180;7954;51.914;8.420;2022-07-05T03:21:21;100765.81;;;23.47
15709;BMP180;7954;51.914;8.420;2022-07-05T03:23:49;100770.41;;;23.50
15709;BMP180;7954;51.914;8.420;2022-07-05T03:26:18;100767.28;;;23.52
15709;BMP180;7954;51.914;8.420;2022-07-05T03:28:46;100777.78;;;23.54
15709;BMP180;7954;51.914;8.420;2022-07-05T03:31:14;100770.59;;;23.58
15709;BMP180;7954;51.914;8.420;2022-07-05T03:33:42;100769.84;;;23.59
15709;BMP180;7954;51.914;8.420;2022-07-05T03:36:10;100761.56;;;23.62
15709;BMP180;7954;51.914;8.420;2022-07-05T03:38:40;100771.34;;;23.57
15709;BMP180;7954;51.914;8.420;2022-07-05T03:41:08;100772.25;;;23.51
15709;BMP180;7954;51.914;8.420;2022-07-05T03:43:36;100773.38;;;23.46
15709;BMP180;7954;51.914;8.420;2022-07-05T03:46:04;100780.56;;;23.48
15709;BMP180;7954;51.914;8.420;2022-07-05T03:48:32;100768.94;;;23.45
15709;BMP180;7954;51.914;8.420;2022-07-05T03:51:07;100772.25;;;23.44
15709;BMP180;7954;51.914;8.420;2022-07-05T03:53:36;100772.97;;;23.43
15709;BMP180;7954;51.914;8.420;2022-07-05T03:56:06;100770.03;;;23.40
15709;BMP180;7954;51.914;8.420;2022-07-05T03:58:43;100779.63;;;23.41
15709;BMP180;7954;51.914;8.420;2022-07-05T04:01:11;100784.03;;;23.42
15709;BMP180;7954;51.914;8.420;2022-07-05T04:03:40;100783.28;;;23.43
15709;BMP180;7954;51.914;8.420;2022-07-05T04:06:09;100790.84;;;23.41
15709;BMP180;7954;51.914;8.420;2022-07-05T04:08:37;100788.44;;;23.43
15709;BMP180;7954;51.914;8.420;2022-07-05T04:11:07;100779.97;;;23.44
15709;BMP180;7954;51.914;8.420;2022-07-05T04:13:36;100785.16;;;23.51
15709;BMP180;7954;51.914;8.420;2022-07-05T04:16:05;100775.38;;;23.55
15709;BMP180;7954;51.914;8.420;2022-07-05T04:18:33;100787.38;;;23.55
15709;BMP180;7954;51.914;8.420;2022-07-05T04:21:02;100789.22;;;23.56
15709;BMP180;7954;51.914;8.420;2022-07-05T04:23:31;100795.09;;;23.55
15709;BMP180;7954;51.914;8.420;2022-07-05T04:26:00;100800.63;;;23.58
15709;BMP180;7954;51.914;8.420;2022-07-05T04:28:30;100786.09;;;23.58
15709;BMP180;7954;51.914;8.420;2022-07-05T04:30:58;100796.56;;;23.60
15709;BMP180;7954;51.914;8.420;2022-07-05T04:33:27;100799.53;;;23.56
15709;BMP180;7954;51.914;8.420;2022-07-05T04:35:55;100809.09;;;23.57
15709;BMP180;7954;51.914;8.420;2022-07-05T04:38:23;100803.56;;;23.54
15709;BMP180;7954;51.914;8.420;2022-07-05T04:40:51;100816.28;;;23.38
15709;BMP180;7954;51.914;8.420;2022-07-05T04:43:18;100812.94;;;23.32
15709;BMP180;7954;51.914;8.420;2022-07-05T04:45:48;100816.97;;;23.30
15709;BMP180;7954;51.914;8.420;2022-07-05T04:48:22;100814.97;;;23.35
15709;BMP180;7954;51.914;8.420;2022-07-05T04:50:50;100811.47;;;23.28
15709;BMP180;7954;51.914;8.420;2022-07-05T04:53:18;100828.94;;;23.23
15709;BMP180;7954;51.914;8.420;2022-07-05T04:55:46;100810.16;;;23.24
15709;BMP180;7954;51.914;8.420;2022-07-05T04:58:14;100828.38;;;23.26
15709;BMP180;7954;51.914;8.420;2022-07-05T05:00:42;100821.22;;;23.30
15709;BMP180;7954;51.914;8.420;2022-07-05T05:03:11;100827.66;;;23.40
15709;BMP180;7954;51.914;8.420;2022-07-05T05:05:41;100827.31;;;23.51
15709;BMP180;7954;51.914;8.420;2022-07-05T05:08:10;100829.00;;;23.51
15709;BMP180;7954;51.914;8.420;2022-07-05T05:10:38;100821.25;;;23.58
15709;BMP180;7954;51.914;8.420;2022-07-05T05:13:06;100821.28;;;23.65
15709;BMP180;7954;51.914;8.420;2022-07-05T05:15:34;100826.84;;;23.75
15709;BMP180;7954;51.914;8.420;2022-07-05T05:18:02;100825.38;;;23.91
15709;BMP180;7954;51.914;8.420;2022-07-05T05:20:32;100823.50;;;24.03
15709;BMP180;7954;51.914;8.420;2022-07-05T05:23:06;100817.56;;;24.11
15709;BMP180;7954;51.914;8.420;2022-07-05T05:25:34;100817.97;;;24.14
15709;BMP180;7954;51.914;8.420;2022-07-05T05:28:03;100815.91;;;24.19
15709;BMP180;7954;51.914;8.420;2022-07-05T05:30:30;100810.75;;;24.26
15709;BMP180;7954;51.914;8.420;2022-07-05T05:32:58;100823.81;;;24.34
15709;BMP180;7954;51.914;8.420;2022-07-05T05:35:28;100822.19;;;24.42
15709;BMP180;7954;51.914;8.420;2022-07-05T05:37:58;100824.72;;;24.49
15709;BMP180;7954;51.914;8.420;2022-07-05T05:40:26;100834.16;;;24.55
15709;BMP180;7954;51.914;8.420;2022-07-05T05:42:54;100836.69;;;24.62
15709;BMP180;7954;51.914;8.420;2022-07-05T05:45:23;100841.47;;;24.66
15709;BMP180;7954;51.914;8.420;2022-07-05T05:47:53;100839.44;;;24.70
15709;BMP180;7954;51.914;8.420;2022-07-05T05:50:22;100844.38;;;24.76
15709;BMP180;7954;51.914;8.420;2022-07-05T05:52:51;100839.03;;;24.81
15709;BMP180;7954;51.914;8.420;2022-07-05T05:55:21;100844.34;;;24.90
15709;BMP180;7954;51.914;8.420;2022-07-05T05:57:49;100843.91;;;25.01
15709;BMP180;7954;51.914;8.420;2022-07-05T06:00:18;100839.50;;;25.07
15709;BMP180;7954;51.914;8.420;2022-07-05T06:02:48;100847.78;;;25.11
15709;BMP180;7954;51.914;8.420;2022-07-05T06:05:18;100850.88;;;25.16
15709;BMP180;7954;51.914;8.420;2022-07-05T06:07:48;100859.97;;;25.12
15709;BMP180;7954;51.914;8.420;2022-07-05T06:10:18;100855.38;;;25.10
15709;BMP180;7954;51.914;8.420;2022-07-05T06:12:48;100858.50;;;25.00
15709;BMP180;7954;51.914;8.420;2022-07-05T06:15:17;100856.66;;;24.99
15709;BMP180;7954;51.914;8.420;2022-07-05T06:17:45;100858.69;;;25.09
15709;BMP180;7954;51.914;8.420;2022-07-05T06:20:18;100858.13;;;25.11
15709;BMP180;7954;51.914;8.420;2022-07-05T06:22:47;100856.44;;;25.12
15709;BMP180;7954;51.914;8.420;2022-07-05T06:25:15;100863.69;;;25.07
15709;BMP180;7954;51.914;8.420;2022-07-05T06:27:52;100867.53;;;25.11
15709;BMP180;7954;51.914;8.420;2022-07-05T06:30:21;100861.63;;;25.12
15709;BMP180;7954;51.914;8.420;2022-07-05T06:32:49;100866.41;;;25.16
15709;BMP180;7954;51.914;8.420;2022-07-05T06:35:18;100855.13;;;25.22
15709;BMP180;7954;51.914;8.420;2022-07-05T06:37:48;100859.50;;;25.30
15709;BMP180;7954;51.914;8.420;2022-07-05T06:40:19;100865.94;;;25.40
15709;BMP180;7954;51.914;8.420;2022-07-05T06:42:48;100859.63;;;25.45
15709;BMP180;7954;51.914;8.420;2022-07-05T06:45:18;100857.03;;;25.45
15709;BMP180;7954;51.914;8.420;2022-07-05T06:47:53;100858.34;;;25.42
15709;BMP180;7954;51.914;8.420;2022-07-05T06:50:22;100860.53;;;25.46
15709;BMP180;7954;51.914;8.420;2022-07-05T06:52:50;100862.50;;;25.55
15709;BMP180;7954;51.914;8.420;2022-07-05T06:55:18;100858.00;;;25.61
15709;BMP180;7954;51.914;8.420;2022-07-05T06:57:46;100870.19;;;25.62
15709;BMP180;7954;51.914;8.420;2022-07-05T07:00:36;100871.81;;;25.69
15709;BMP180;7954;51.914;8.420;2022-07-05T07:03:24;100866.47;;;25.74
15709;BMP180;7954;51.914;8.420;2022-07-05T07:06:12;100867.03;;;25.72
15709;BMP180;7954;51.914;8.420;2022-07-05T07:08:40;100868.31;;;25.75
15709;BMP180;7954;51.914;8.420;2022-07-05T07:11:25;100869.09;;;25.90
15709;BMP180;7954;51.914;8.420;2022-07-05T07:13:53;100878.75;;;26.06
15709;BMP180;7954;51.914;8.420;2022-07-05T07:16:23;100874.81;;;26.16
15709;BMP180;7954;51.914;8.420;2022-07-05T07:18:51;100872.22;;;26.39
15709;BMP180;7954;51.914;8.420;2022-07-05T07:21:40;100865.03;;;26.52
15709;BMP180;7954;51.914;8.420;2022-07-05T07:24:09;100858.22;;;26.67
15709;BMP180;7954;51.914;8.420;2022-07-05T07:26:37;100856.47;;;26.75
15709;BMP180;7954;51.914;8.420;2022-07-05T07:29:22;100849.50;;;26.82
15709;BMP180;7954;51.914;8.420;2022-07-05T07:31:52;100858.91;;;27.04
15709;BMP180;7954;51.914;8.420;2022-07-05T07:34:20;100863.69;;;27.08
15709;BMP180;7954;51.914;8.420;2022-07-05T07:36:48;100860.22;;;27.16
15709;BMP180;7954;51.914;8.420;2022-07-05T07:39:16;100874.88;;;27.00
15709;BMP180;7954;51.914;8.420;2022-07-05T07:41:44;100868.19;;;27.02
15709;BMP180;7954;51.914;8.420;2022-07-05T07:44:12;100864.16;;;27.13
15709;BMP180;7954;51.914;8.420;2022-07-05T07:46:40;100863.41;;;27.29
15709;BMP180;7954;51.914;8.420;2022-07-05T07:49:10;100868.81;;;27.39
15709;BMP180;7954;51.914;8.420;2022-07-05T07:51:39;100872.94;;;27.06
15709;BMP180;7954;51.914;8.420;2022-07-05T07:54:08;100866.34;;;27.01
15709;BMP180;7954;51.914;8.420;2022-07-05T07:56:40;100874.00;;;26.93
15709;BMP180;7954;51.914;8.420;2022-07-05T07:59:07;100861.00;;;26.84
15709;BMP180;7954;51.914;8.420;2022-07-05T08:01:35;100859.22;;;26.92
15709;BMP180;7954;51.914;8.420;2022-07-05T08:04:12;100860.22;;;27.16
15709;BMP180;7954;51.914;8.420;2022-07-05T08:06:41;100861.44;;;27.35
15709;BMP180;7954;51.914;8.420;2022-07-05T08:09:10;100854.25;;;27.32
15709;BMP180;7954;51.914;8.420;2022-07-05T08:11:42;100862.44;;;27.44
15709;BMP180;7954;51.914;8.420;2022-07-05T08:14:10;100853.78;;;27.52
15709;BMP180;7954;51.914;8.420;2022-07-05T08:16:39;100853.47;;;27.49
15709;BMP180;7954;51.914;8.420;2022-07-05T08:19:17;100856.03;;;27.64
15709;BMP180;7954;51.914;8.420;2022-07-05T08:22:02;100848.16;;;27.80
15709;BMP180;7954;51.914;8.420;2022-07-05T08:24:30;100853.66;;;28.06
15709;BMP180;7954;51.914;8.420;2022-07-05T08:26:58;100840.94;;;27.92
15709;BMP180;7954;51.914;8.420;2022-07-05T08:29:26;100841.16;;;27.79
15709;BMP180;7954;51.914;8.420;2022-07-05T08:31:54;100847.34;;;27.64
15709;BMP180;7954;51.914;8.420;2022-07-05T08:34:23;100835.63;;;27.76
15709;BMP180;7954;51.914;8.420;2022-07-05T08:36:51;100837.84;;;27.88
15709;BMP180;7954;51.914;8.420;2022-07-05T08:39:19;100837.91;;;27.73
15709;BMP180;7954;51.914;8.420;2022-07-05T08:41:50;100839.16;;;27.76
15709;BMP180;7954;51.914;8.420;2022-07-05T08:44:19;100842.44;;;27.91
15709;BMP180;7954;51.914;8.420;2022-07-05T08:46:49;100845.03;;;27.91
15709;BMP180;7954;51.914;8.420;2022-07-05T08:49:23;100839.53;;;27.88
15709;BMP180;7954;51.914;8.420;2022-07-05T08:51:52;100846.88;;;27.92
15709;BMP180;7954;51.914;8.420;2022-07-05T08:54:22;100853.31;;;27.95
15709;BMP180;7954;51.914;8.420;2022-07-05T08:56:52;100842.91;;;28.19
15709;BMP180;7954;51.914;8.420;2022-07-05T08:59:40;100842.34;;;28.30
15709;BMP180;7954;51.914;8.420;2022-07-05T09:02:11;100836.09;;;28.36
15709;BMP180;7954;51.914;8.420;2022-07-05T09:04:43;100842.44;;;28.23
15709;BMP180;7954;51.914;8.420;2022-07-05T09:07:15;100838.97;;;27.98
15709;BMP180;7954;51.914;8.420;2022-07-05T09:09:46;100840.63;;;27.98
15709;BMP180;7954;51.914;8.420;2022-07-05T09:12:18;100840.47;;;27.96
15709;BMP180;7954;51.914;8.420;2022-07-05T09:14:53;100840.22;;;28.10
15709;BMP180;7954;51.914;8.420;2022-07-05T09:17:22;100832.53;;;28.27
15709;BMP180;7954;51.914;8.420;2022-07-05T09:20:10;100838.88;;;28.46
15709;BMP180;7954;51.914;8.420;2022-07-05T09:22:44;100844.56;;;28.59
15709;BMP180;7954;51.914;8.420;2022-07-05T09:25:15;100829.00;;;28.76
15709;BMP180;7954;51.914;8.420;2022-07-05T09:27:54;100832.09;;;29.06
15709;BMP180;7954;51.914;8.420;2022-07-05T09:30:24;100834.41;;;29.11
15709;BMP180;7954;51.914;8.420;2022-07-05T09:33:04;100828.41;;;29.12
15709;BMP180;7954;51.914;8.420;2022-07-05T09:35:34;100831.91;;;29.29
15709;BMP180;7954;51.914;8.420;2022-07-05T09:38:03;100821.97;;;29.25
15709;BMP180;7954;51.914;8.420;2022-07-05T09:40:45;100841.59;;;29.05
15709;BMP180;7954;51.914;8.420;2022-07-05T09:43:14;100827.66;;;28.88
15709;BMP180;7954;51.914;8.420;2022-07-05T09:45:56;100840.19;;;28.83
15709;BMP180;7954;51.914;8.420;2022-07-05T09:48:25;100836.84;;;28.93
15709;BMP180;7954;51.914;8.420;2022-07-05T09:51:06;100834.84;;;28.82
15709;BMP180;7954;51.914;8.420;2022-07-05T09:53:55;100829.63;;;28.82
15709;BMP180;7954;51.914;8.420;2022-07-05T09:56:29;100831.94;;;29.04
15709;BMP180;7954;51.914;8.420;2022-07-05T09:59:18;100828.59;;;29.05
15709;BMP180;7954;51.914;8.420;2022-07-05T10:01:48;100832.06;;;28.97
15709;BMP180;7954;51.914;8.420;2022-07-05T10:04:17;100832.09;;;29.06
15709;BMP180;7954;51.914;8.420;2022-07-05T10:06:47;100835.84;;;28.58
15709;BMP180;7954;51.914;8.420;2022-07-05T10:09:15;100836.91;;;28.52
15709;BMP180;7954;51.914;8.420;2022-07-05T10:11:45;100833.22;;;28.42
15709;BMP180;7954;51.914;8.420;2022-07-05T10:14:18;100829.28;;;28.62
15709;BMP180;7954;51.914;8.420;2022-07-05T10:16:52;100841.50;;;28.63
15709;BMP180;7954;51.914;8.420;2022-07-05T10:19:20;100837.25;;;28.72
15709;BMP180;7954;51.914;8.420;2022-07-05T10:21:51;100825.81;;;29.21
15709;BMP180;7954;51.914;8.420;2022-07-05T10:24:41;100813.84;;;29.56
15709;BMP180;7954;51.914;8.420;2022-07-05T10:27:10;100821.81;;;29.49
15709;BMP180;7954;51.914;8.420;2022-07-05T10:29:39;100816.19;;;29.45
15709;BMP180;7954;51.914;8.420;2022-07-05T10:32:08;100824.75;;;29.52
15709;BMP180;7954;51.914;8.420;2022-07-05T10:34:39;100821.16;;;29.69
15709;BMP180;7954;51.914;8.420;2022-07-05T10:37:30;100820.31;;;29.87
15709;BMP180;7954;51.914;8.420;2022-07-05T10:40:01;100804.78;;;30.13
15709;BMP180;7954;51.914;8.420;2022-07-05T10:42:33;100801.91;;;30.29
15709;BMP180;7954;51.914;8.420;2022-07-05T10:45:24;100801.44;;;30.06
15709;BMP180;7954;51.914;8.420;2022-07-05T10:48:13;100817.91;;;29.80
15709;BMP180;7954;51.914;8.420;2022-07-05T10:50:43;100829.34;;;29.46
15709;BMP180;7954;51.914;8.420;2022-07-05T10:53:13;100822.13;;;29.52
15709;BMP180;7954;51.914;8.420;2022-07-05T10:55:48;100806.19;;;29.49
15709;BMP180;7954;51.914;8.420;2022-07-05T10:58:28;100814.31;;;29.61
15709;BMP180;7954;51.914;8.420;2022-07-05T11:04:28;100797.97;;;29.97
15709;BMP180;7954;51.914;8.420;2022-07-05T11:07:01;100796.34;;;30.16
15709;BMP180;7954;51.914;8.420;2022-07-05T11:09:31;100786.84;;;30.35
15709;BMP180;7954;51.914;8.420;2022-07-05T11:12:04;100795.94;;;30.30
15709;BMP180;7954;51.914;8.420;2022-07-05T11:14:52;100794.38;;;30.40
15709;BMP180;7954;51.914;8.420;2022-07-05T11:17:24;100800.03;;;30.45
15709;BMP180;7954;51.914;8.420;2022-07-05T11:20:17;100790.91;;;30.95
15709;BMP180;7954;51.914;8.420;2022-07-05T11:23:05;100786.13;;;30.99
15709;BMP180;7954;51.914;8.420;2022-07-05T11:25:37;100791.16;;;31.06
15709;BMP180;7954;51.914;8.420;2022-07-05T11:28:12;100790.78;;;30.75
15709;BMP180;7954;51.914;8.420;2022-07-05T11:30:49;100801.53;;;30.69
15709;BMP180;7954;51.914;8.420;2022-07-05T11:33:35;100788.06;;;30.47
15709;BMP180;7954;51.914;8.420;2022-07-05T11:36:21;100785.38;;;30.28
15709;BMP180;7954;51.914;8.420;2022-07-05T11:39:09;100783.66;;;30.29
15709;BMP180;7954;51.914;8.420;2022-07-05T11:41:42;100796.09;;;30.04
15709;BMP180;7954;51.914;8.420;2022-07-05T11:44:10;100785.03;;;30.07
15709;BMP180;7954;51.914;8.420;2022-07-05T11:46:38;100786.25;;;30.10
15709;BMP180;7954;51.914;8.420;2022-07-05T11:49:19;100775.19;;;30.13
15709;BMP180;7954;51.914;8.420;2022-07-05T11:51:58;100775.38;;;30.33
15709;BMP180;7954;51.914;8.420;2022-07-05T11:54:29;100774.03;;;30.55
15709;BMP180;7954;51.914;8.420;2022-07-05T11:56:59;100769.69;;;30.63
15709;BMP180;7954;51.914;8.420;2022-07-05T11:59:27;100770.31;;;30.79
15709;BMP180;7954;51.914;8.420;2022-07-05T12:01:55;100763.88;;;30.94
15709;BMP180;7954;51.914;8.420;2022-07-05T12:04:25;100769.94;;;31.22
15709;BMP180;7954;51.914;8.420;2022-07-05T12:06:54;100760.53;;;31.42
15709;BMP180;7954;51.914;8.420;2022-07-05T12:09:24;100749.28;;;31.71
15709;BMP180;7954;51.914;8.420;2022-07-05T12:11:53;100759.66;;;31.90
15709;BMP180;7954;51.914;8.420;2022-07-05T12:14:48;100763.78;;;31.39
15709;BMP180;7954;51.914;8.420;2022-07-05T12:17:17;100758.66;;;31.31
15709;BMP180;7954;51.914;8.420;2022-07-05T12:19:51;100755.22;;;31.22
15709;BMP180;7954;51.914;8.420;2022-07-05T12:22:28;100757.19;;;31.25
15709;BMP180;7954;51.914;8.420;2022-07-05T12:24:56;100754.16;;;31.20
15709;BMP180;7954;51.914;8.420;2022-07-05T12:27:25;100762.97;;;30.94
15709;BMP180;7954;51.914;8.420;2022-07-05T12:29:54;100761.50;;;30.87
15709;BMP180;7954;51.914;8.420;2022-07-05T12:32:22;100767.28;;;30.93
15709;BMP180;7954;51.914;8.420;2022-07-05T12:34:51;100753.25;;;30.83
15709;BMP180;7954;51.914;8.420;2022-07-05T12:37:20;100756.16;;;31.04
15709;BMP180;7954;51.914;8.420;2022-07-05T12:39:48;100752.69;;;31.42
15709;BMP180;7954;51.914;8.420;2022-07-05T12:42:29;100761.88;;;31.47
15709;BMP180;7954;51.914;8.420;2022-07-05T12:45:08;100765.25;;;31.46
15709;BMP180;7954;51.914;8.420;2022-07-05T12:47:36;100758.81;;;31.61
15709;BMP180;7954;51.914;8.420;2022-07-05T12:50:05;100751.81;;;31.90
15709;BMP180;7954;51.914;8.420;2022-07-05T12:52:54;100757.78;;;32.17
15709;BMP180;7954;51.914;8.420;2022-07-05T12:55:21;100747.06;;;32.04
15709;BMP180;7954;51.914;8.420;2022-07-05T12:58:07;100751.31;;;31.93
15709;BMP180;7954;51.914;8.420;2022-07-05T13:00:36;100760.00;;;32.02
15709;BMP180;7954;51.914;8.420;2022-07-05T13:03:04;100757.28;;;31.73
15709;BMP180;7954;51.914;8.420;2022-07-05T13:05:34;100753.63;;;31.81
15709;BMP180;7954;51.914;8.420;2022-07-05T13:08:03;100750.16;;;32.00
15709;BMP180;7954;51.914;8.420;2022-07-05T13:10:31;100748.28;;;32.37
15709;BMP180;7954;51.914;8.420;2022-07-05T13:13:06;100752.03;;;32.41
15709;BMP180;7954;51.914;8.420;2022-07-05T13:15:36;100745.13;;;32.31
15709;BMP180;7954;51.914;8.420;2022-07-05T13:18:05;100753.59;;;32.09
15709;BMP180;7954;51.914;8.420;2022-07-05T13:20:33;100754.69;;;31.83
15709;BMP180;7954;51.914;8.420;2022-07-05T13:23:01;100754.47;;;31.99
15709;BMP180;7954;51.914;8.420;2022-07-05T13:25:29;100753.22;;;32.74
15709;BMP180;7954;51.914;8.420;2022-07-05T13:27:57;100746.41;;;32.86
15709;BMP180;7954;51.914;8.420;2022-07-05T13:30:25;100761.69;;;33.01
15709;BMP180;7954;51.914;8.420;2022-07-05T13:32:55;100740.56;;;33.61
15709;BMP180;7954;51.914;8.420;2022-07-05T13:35:22;100756.63;;;34.39
15709;BMP180;7954;51.914;8.420;2022-07-05T13:37:52;100750.66;;;34.74
15709;BMP180;7954;51.914;8.420;2022-07-05T13:40:21;100746.56;;;34.66
15709;BMP180;7954;51.914;8.420;2022-07-05T13:42:49;100747.38;;;34.44
15709;BMP180;7954;51.914;8.420;2022-07-05T13:45:18;100738.03;;;35.15
15709;BMP180;7954;51.914;8.420;2022-07-05T13:47:55;100732.75;;;36.07
15709;BMP180;7954;51.914;8.420;2022-07-05T13:50:23;100709.31;;;36.85
15709;BMP180;7954;51.914;8.420;2022-07-05T13:53:01;100719.66;;;35.85
15709;BMP180;7954;51.914;8.420;2022-07-05T13:55:30;100724.78;;;35.13
15709;BMP180;7954;51.914;8.420;2022-07-05T13:57:58;100725.88;;;34.82
15709;BMP180;7954;51.914;8.420;2022-07-05T14:00:26;100722.94;;;35.35
15709;BMP180;7954;51.914;8.420;2022-07-05T14:02:56;100735.97;;;35.33
15709;BMP180;7954;51.914;8.420;2022-07-05T14:05:32;100733.47;;;35.24
15709;BMP180;7954;51.914;8.420;2022-07-05T14:08:00;100726.72;;;34.81
15709;BMP180;7954;51.914;8.420;2022-07-05T14:10:28;100724.09;;;35.27
15709;BMP180;7954;51.914;8.420;2022-07-05T14:12:59;100715.84;;;35.34
15709;BMP180;7954;51.914;8.420;2022-07-05T14:15:28;100726.09;;;36.37
15709;BMP180;7954;51.914;8.420;2022-07-05T14:17:58;100723.31;;;37.10
15709;BMP180;7954;51.914;8.420;2022-07-05T14:20:28;100717.00;;;37.59
15709;BMP180;7954;51.914;8.420;2022-07-05T14:22:56;100707.38;;;37.21
15709;BMP180;7954;51.914;8.420;2022-07-05T14:25:24;100694.84;;;36.41
15709;BMP180;7954;51.914;8.420;2022-07-05T14:27:53;100705.72;;;36.59
15709;BMP180;7954;51.914;8.420;2022-07-05T14:30:22;100715.31;;;35.97
15709;BMP180;7954;51.914;8.420;2022-07-05T14:32:51;100714.69;;;35.65
15709;BMP180;7954;51.914;8.420;2022-07-05T14:35:20;100726.78;;;35.63